createdAt,value
2023-01-20T00:01:58.505Z,1.80
2023-01-20T00:05:04.355Z,1.73
2023-01-20T00:08:07.694Z,1.60
2023-01-20T00:11:14.048Z,1.70
2023-01-20T00:14:18.536Z,1.50
2023-01-20T00:17:21.572Z,1.70
2023-01-20T00:20:24.627Z,1.63
2023-01-20T00:23:27.667Z,1.50
2023-01-20T00:26:30.730Z,1.67
2023-01-20T00:29:35.086Z,1.70
2023-01-20T00:32:39.442Z,1.30
2023-01-20T00:35:43.969Z,1.60
2023-01-20T00:38:47.301Z,1.77
2023-01-20T00:41:52.958Z,1.80
2023-01-20T00:44:57.451Z,1.80
2023-01-20T00:48:00.507Z,1.53
2023-01-20T00:51:04.019Z,1.80
2023-01-20T00:54:07.104Z,1.80
2023-01-20T00:57:12.141Z,1.90
2023-01-20T01:00:18.859Z,1.60
2023-01-20T01:03:25.182Z,1.50
2023-01-20T01:06:28.264Z,1.50
2023-01-20T01:09:34.772Z,1.50
2023-01-20T01:12:38.216Z,1.40
2023-01-20T01:15:49.641Z,1.50
2023-01-20T01:18:54.822Z,1.73
2023-01-20T01:21:57.837Z,1.40
2023-01-20T01:25:03.145Z,1.50
2023-01-20T01:28:08.816Z,1.30
2023-01-20T01:31:13.264Z,1.10
2023-01-20T01:34:18.764Z,1.53
2023-01-20T01:40:40.054Z,1.30
2023-01-20T01:44:05.993Z,1.30
2023-01-20T01:47:13.024Z,1.10
2023-01-20T01:50:20.741Z,1.27
2023-01-20T01:53:23.946Z,1.10
2023-01-20T01:56:28.777Z,1.20
2023-01-20T01:59:32.058Z,1.03
2023-01-20T02:02:36.629Z,1.13
2023-01-20T02:05:43.123Z,1.10
2023-01-20T02:08:48.305Z,1.17
2023-01-20T02:11:57.164Z,0.90
2023-01-20T02:15:05.756Z,1.30
2023-01-20T02:18:32.674Z,1.23
2023-01-20T02:22:10.341Z,0.83
2023-01-20T02:25:50.866Z,1.13
2023-01-20T02:29:22.746Z,1.20
2023-01-20T02:32:38.499Z,0.90
2023-01-20T02:35:46.791Z,0.80
2023-01-20T02:38:59.836Z,0.80
2023-01-20T02:42:18.737Z,0.80
2023-01-20T02:45:27.929Z,1.00
2023-01-20T02:48:41.711Z,0.87
2023-01-20T02:51:54.247Z,0.80
2023-01-20T02:55:00.703Z,1.10
2023-01-20T02:58:08.273Z,1.03
2023-01-20T03:01:15.806Z,0.90
2023-01-20T03:04:24.607Z,0.80
2023-01-20T03:07:30.982Z,0.67
2023-01-20T03:10:37.090Z,0.97
2023-01-20T03:13:47.692Z,0.67
2023-01-20T03:16:50.960Z,1.00
2023-01-20T03:19:55.412Z,0.67
2023-01-20T03:23:00.731Z,0.50
2023-01-20T03:26:08.791Z,0.90
2023-01-20T03:29:12.772Z,0.80
2023-01-20T03:32:16.490Z,0.80
2023-01-20T03:35:21.350Z,0.57
2023-01-20T03:38:24.423Z,0.80
2023-01-20T03:41:36.745Z,0.90
2023-01-20T03:44:58.461Z,0.80
2023-01-20T03:48:11.551Z,0.70
2023-01-20T03:51:25.657Z,0.70
2023-01-20T03:54:34.836Z,0.67
2023-01-20T03:57:42.987Z,0.80
2023-01-20T04:00:50.391Z,0.80
2023-01-20T04:03:56.149Z,0.70
2023-01-20T04:07:02.223Z,0.70
2023-01-20T04:10:11.332Z,0.87
2023-01-20T04:13:17.168Z,0.60
2023-01-20T04:16:23.936Z,1.10
2023-01-20T04:19:31.426Z,0.70
2023-01-20T04:22:45.166Z,0.60
2023-01-20T04:25:50.523Z,0.60
2023-01-20T04:28:53.497Z,0.87
2023-01-20T04:32:00.398Z,0.80
2023-01-20T04:35:03.530Z,0.93
2023-01-20T04:38:07.964Z,1.20
2023-01-20T04:41:12.440Z,1.53
2023-01-20T04:44:15.506Z,1.60
2023-01-20T04:47:18.492Z,1.60
2023-01-20T04:50:21.523Z,2.20
2023-01-20T04:53:25.862Z,2.53
2023-01-20T04:56:30.729Z,2.30
2023-01-20T04:59:38.046Z,2.93
2023-01-20T05:02:41.079Z,3.00
2023-01-20T05:05:44.168Z,3.60
2023-01-20T05:08:48.695Z,3.40
2023-01-20T05:11:51.842Z,3.20
2023-01-20T05:14:54.888Z,3.40
2023-01-20T05:17:57.909Z,3.10
2023-01-20T05:21:01.237Z,3.30
2023-01-20T05:24:06.391Z,3.37
2023-01-20T05:27:09.430Z,3.30
2023-01-20T05:30:15.536Z,3.30
2023-01-20T05:33:18.569Z,3.57
2023-01-20T05:36:21.704Z,3.37
2023-01-20T05:39:26.311Z,3.40
2023-01-20T05:42:29.534Z,2.90
2023-01-20T05:45:33.025Z,4.07
2023-01-20T05:48:38.920Z,3.40
2023-01-20T05:51:42.009Z,3.30
2023-01-20T05:54:46.453Z,3.40
2023-01-20T05:57:51.782Z,3.90
2023-01-20T06:00:54.773Z,4.00
2023-01-20T06:03:57.823Z,3.60
2023-01-20T06:07:00.912Z,4.33
2023-01-20T06:10:05.705Z,4.43
2023-01-20T06:13:12.297Z,4.30
2023-01-20T06:16:15.770Z,4.37
2023-01-20T06:19:18.855Z,5.13
2023-01-20T06:22:21.937Z,4.50
2023-01-20T06:25:26.392Z,5.33
2023-01-20T06:28:29.524Z,5.13
2023-01-20T06:31:32.790Z,4.83
2023-01-20T06:34:36.744Z,5.27
2023-01-20T06:37:39.766Z,5.70
2023-01-20T06:40:44.252Z,5.20
2023-01-20T06:43:47.646Z,5.17
2023-01-20T06:46:50.683Z,5.33
2023-01-20T06:49:53.725Z,5.23
2023-01-20T06:52:56.913Z,5.47
2023-01-20T06:56:05.144Z,5.23
2023-01-20T06:59:08.202Z,5.20
2023-01-20T07:02:13.130Z,16.13
2023-01-20T07:05:16.779Z,20.40
2023-01-20T07:08:27.198Z,20.47
2023-01-20T07:11:31.828Z,18.57
2023-01-20T07:14:37.299Z,14.90
2023-01-20T07:17:40.351Z,13.53
2023-01-20T07:20:44.212Z,11.10
2023-01-20T07:23:47.718Z,11.30
2023-01-20T07:26:53.673Z,11.00
2023-01-20T07:29:56.617Z,8.40
2023-01-20T07:32:59.599Z,7.50
2023-01-20T07:36:03.067Z,7.30
2023-01-20T07:39:07.588Z,7.07
2023-01-20T07:42:11.916Z,6.13
2023-01-20T07:45:17.963Z,6.53
2023-01-20T07:48:21.476Z,6.30
2023-01-20T07:51:24.636Z,5.47
2023-01-20T07:54:27.662Z,5.37
2023-01-20T07:57:31.990Z,4.77
2023-01-20T08:00:35.439Z,5.07
2023-01-20T08:03:38.440Z,4.60
2023-01-20T08:06:41.490Z,4.30
2023-01-20T08:09:45.000Z,4.13
2023-01-20T08:12:57.901Z,4.00
2023-01-20T08:16:01.980Z,4.40
2023-01-20T08:19:05.162Z,4.30
2023-01-20T08:22:08.465Z,5.23
2023-01-20T08:25:11.737Z,5.20
2023-01-20T08:28:16.094Z,5.00
2023-01-20T08:31:25.762Z,4.37
2023-01-20T08:34:28.883Z,3.73
2023-01-20T08:37:31.874Z,3.77
2023-01-20T08:40:35.016Z,3.40
2023-01-20T08:43:39.829Z,3.50
2023-01-20T08:46:43.641Z,4.10
2023-01-20T08:49:48.483Z,3.80
2023-01-20T08:52:51.597Z,2.77
2023-01-20T08:55:58.152Z,3.10
2023-01-20T08:59:02.799Z,2.53
2023-01-20T09:02:05.938Z,2.27
2023-01-20T09:05:10.203Z,2.87
2023-01-20T09:08:13.279Z,2.73
2023-01-20T09:11:18.891Z,2.20
2023-01-20T09:14:25.619Z,2.47
2023-01-20T09:17:28.592Z,2.87
2023-01-20T09:20:31.795Z,2.40
2023-01-20T09:23:37.197Z,2.70
2023-01-20T09:26:41.661Z,2.00
2023-01-20T09:29:46.079Z,2.30
2023-01-20T09:32:53.177Z,2.40
2023-01-20T09:35:59.144Z,1.70
2023-01-20T09:39:19.838Z,1.90
2023-01-20T09:42:48.331Z,2.83
2023-01-20T09:45:57.815Z,2.73
2023-01-20T09:49:28.848Z,2.53
2023-01-20T09:53:01.734Z,2.50
2023-01-20T09:56:12.088Z,2.07
2023-01-20T09:59:23.257Z,2.20
2023-01-20T10:02:35.223Z,2.30
2023-01-20T10:05:40.778Z,2.40
2023-01-20T10:09:04.533Z,2.50
2023-01-20T10:12:13.293Z,2.83
2023-01-20T10:15:21.769Z,4.57
2023-01-20T10:18:38.443Z,4.20
2023-01-20T10:21:45.168Z,4.30
2023-01-20T10:24:58.243Z,4.30
2023-01-20T10:28:10.072Z,3.50
2023-01-20T10:31:19.165Z,3.30
2023-01-20T10:34:23.696Z,3.60
2023-01-20T10:37:27.748Z,3.37
2023-01-20T10:40:39.796Z,2.70
2023-01-20T10:43:43.144Z,2.67
2023-01-20T10:47:13.618Z,2.30
2023-01-20T10:50:52.738Z,2.80
2023-01-20T10:54:06.572Z,2.30
2023-01-20T10:57:14.365Z,2.03
2023-01-20T11:00:25.068Z,1.73
2023-01-20T11:03:38.352Z,1.80
2023-01-20T11:06:42.950Z,1.90
2023-01-20T11:09:48.875Z,2.00
2023-01-20T11:12:54.884Z,1.58
2023-01-20T11:16:02.832Z,1.80
2023-01-20T11:19:07.478Z,1.50
2023-01-20T11:22:20.643Z,1.40
2023-01-20T11:25:26.684Z,1.60
2023-01-20T11:28:38.129Z,1.60
2023-01-20T11:31:45.084Z,1.30
2023-01-20T11:34:50.725Z,1.40
2023-01-20T11:37:55.189Z,1.37
2023-01-20T11:40:58.804Z,1.37
2023-01-20T11:44:09.870Z,1.30
2023-01-20T11:47:25.776Z,1.20
2023-01-20T11:53:45.678Z,1.20
2023-01-20T11:56:55.108Z,1.30
2023-01-20T11:59:58.426Z,1.00
2023-01-20T12:03:03.765Z,1.50
2023-01-20T12:06:15.730Z,1.40
2023-01-20T12:09:23.463Z,1.60
2023-01-20T12:12:33.819Z,1.67
2023-01-20T12:15:42.923Z,1.80
2023-01-20T12:19:02.127Z,1.17
2023-01-20T12:22:13.987Z,1.30
2023-01-20T12:25:25.227Z,1.43
2023-01-20T12:28:35.782Z,1.73
2023-01-20T12:31:39.260Z,2.00
2023-01-20T12:34:45.127Z,1.40
2023-01-20T12:37:56.805Z,1.63
2023-01-20T12:41:06.844Z,1.87
2023-01-20T12:44:21.021Z,1.67
2023-01-20T12:47:45.764Z,1.63
2023-01-20T12:51:02.069Z,1.60
2023-01-20T12:54:47.528Z,1.97
2023-01-20T12:58:21.294Z,2.07
2023-01-20T13:01:36.410Z,1.63
2023-01-20T13:05:21.083Z,1.77
2023-01-20T13:08:36.442Z,1.87
2023-01-20T13:11:56.492Z,1.90
2023-01-20T13:15:10.909Z,2.07
2023-01-20T13:18:24.707Z,1.70
2023-01-20T13:21:30.779Z,1.50
2023-01-20T13:24:34.006Z,1.93
2023-01-20T13:27:39.015Z,1.40
2023-01-20T13:30:48.190Z,1.50
2023-01-20T13:33:51.371Z,1.77
2023-01-20T13:37:33.840Z,1.67
2023-01-20T13:40:53.175Z,1.73
2023-01-20T13:43:56.256Z,1.10
2023-01-20T13:47:00.868Z,1.60
2023-01-20T13:50:23.907Z,1.43
2023-01-20T13:53:32.383Z,1.30
2023-01-20T13:56:35.548Z,1.30
2023-01-20T13:59:40.539Z,1.80
2023-01-20T14:02:46.730Z,1.53
2023-01-20T14:05:51.366Z,2.00
2023-01-20T14:08:55.633Z,1.60
2023-01-20T14:16:44.619Z,1.20
2023-01-20T14:19:50.556Z,1.57
2023-01-20T14:22:53.562Z,1.47
2023-01-20T14:26:06.514Z,1.23
2023-01-20T14:29:20.172Z,1.13
2023-01-20T14:32:26.242Z,1.10
2023-01-20T14:35:33.214Z,1.00
2023-01-20T14:38:45.231Z,1.20
2023-01-20T14:41:54.728Z,0.97
2023-01-20T14:44:59.281Z,1.13
2023-01-20T14:48:07.886Z,1.10
2023-01-20T14:51:13.106Z,1.17
2023-01-20T14:54:46.953Z,1.07
2023-01-20T14:57:50.070Z,0.73
2023-01-20T15:00:56.772Z,0.90
2023-01-20T15:04:03.771Z,1.00
2023-01-20T15:07:22.230Z,1.07
2023-01-20T15:10:28.291Z,0.90
2023-01-20T15:13:31.395Z,1.00
2023-01-20T15:16:47.542Z,1.00
2023-01-20T15:19:50.773Z,1.10
2023-01-20T15:22:55.238Z,0.93
2023-01-20T15:26:07.753Z,1.03
2023-01-20T15:29:22.086Z,0.90
2023-01-20T15:32:25.234Z,1.00
2023-01-20T15:35:28.359Z,1.17
2023-01-20T15:38:33.842Z,0.80
2023-01-20T15:41:37.009Z,0.93
2023-01-20T15:44:40.122Z,1.10
2023-01-20T15:47:43.516Z,1.03
2023-01-20T15:50:49.011Z,0.90
2023-01-20T15:54:00.929Z,0.87
2023-01-20T15:57:03.969Z,0.90
2023-01-20T16:00:08.301Z,0.80
2023-01-20T16:03:23.009Z,0.90
2023-01-20T16:06:34.266Z,1.00
2023-01-20T16:09:43.943Z,0.90
2023-01-20T16:12:50.071Z,0.97
2023-01-20T16:15:55.013Z,0.90
2023-01-20T16:19:01.797Z,1.30
2023-01-20T16:22:08.648Z,1.07
2023-01-20T16:25:14.982Z,1.37
2023-01-20T16:28:21.434Z,1.13
2023-01-20T16:31:25.744Z,1.30
2023-01-20T16:34:30.028Z,1.50
2023-01-20T16:37:36.509Z,3.20
2023-01-20T16:40:48.615Z,3.27
2023-01-20T16:43:54.565Z,3.43
2023-01-20T16:46:58.716Z,2.93
2023-01-20T16:50:01.873Z,3.90
2023-01-20T16:53:05.350Z,4.20
2023-01-20T16:56:21.014Z,5.77
2023-01-20T16:59:24.553Z,8.37
2023-01-20T17:02:30.346Z,46.20
2023-01-20T17:05:39.409Z,103.60
2023-01-20T17:08:44.363Z,90.90
2023-01-20T17:11:49.048Z,78.93
2023-01-20T17:14:52.196Z,68.57
2023-01-20T17:18:00.591Z,63.90
2023-01-20T17:21:06.529Z,58.60
2023-01-20T17:24:16.031Z,26.03
2023-01-20T17:27:20.551Z,27.63
2023-01-20T17:30:26.551Z,21.60
2023-01-20T17:33:35.825Z,16.10
2023-01-20T17:36:38.953Z,15.27
2023-01-20T17:39:43.637Z,13.30
2023-01-20T17:42:49.258Z,11.00
2023-01-20T17:45:52.871Z,10.37
2023-01-20T17:48:58.229Z,9.33
2023-01-20T17:52:02.108Z,8.40
2023-01-20T17:55:05.693Z,7.90
2023-01-20T17:58:11.680Z,7.70
2023-01-20T18:01:17.173Z,6.30
2023-01-20T18:04:23.576Z,5.73
2023-01-20T18:07:26.687Z,5.87
2023-01-20T18:10:29.961Z,5.17
2023-01-20T18:13:35.391Z,5.10
2023-01-20T18:16:43.187Z,4.57
2023-01-20T18:19:47.357Z,5.40
2023-01-20T18:22:51.256Z,4.00
2023-01-20T18:26:04.778Z,4.50
2023-01-20T18:29:14.755Z,4.17
2023-01-20T18:32:18.202Z,4.20
2023-01-20T18:35:21.481Z,3.80
2023-01-20T18:38:25.163Z,4.63
2023-01-20T18:41:31.833Z,4.50
2023-01-20T18:44:38.745Z,4.70
2023-01-20T18:47:42.029Z,5.10
2023-01-20T18:50:46.474Z,5.50
2023-01-20T18:53:58.439Z,5.97
2023-01-20T18:57:01.849Z,5.90
2023-01-20T19:00:07.777Z,6.20
2023-01-20T19:03:11.378Z,6.07
2023-01-20T19:06:18.868Z,5.50
2023-01-20T19:09:23.596Z,5.53
2023-01-20T19:12:26.860Z,6.07
2023-01-20T19:15:33.616Z,5.13
2023-01-20T19:18:37.304Z,5.40
2023-01-20T19:21:43.191Z,5.73
2023-01-20T19:24:48.798Z,5.20
2023-01-20T19:27:55.122Z,5.90
2023-01-20T19:31:11.352Z,6.10
2023-01-20T19:34:19.268Z,4.93
2023-01-20T19:37:22.811Z,5.50
2023-01-20T19:40:26.730Z,6.40
2023-01-20T19:43:31.294Z,4.67
2023-01-20T19:46:41.092Z,5.40
2023-01-20T19:49:48.620Z,5.30
2023-01-20T19:52:55.501Z,5.83
2023-01-20T19:56:03.715Z,4.90
2023-01-20T19:59:14.497Z,4.60
2023-01-20T20:02:27.637Z,4.60
2023-01-20T20:05:32.133Z,4.70
2023-01-20T20:08:36.889Z,6.83
2023-01-20T20:11:40.597Z,5.87
2023-01-20T20:14:44.393Z,5.30
2023-01-20T20:17:54.769Z,5.70
2023-01-20T20:21:06.608Z,6.23
2023-01-20T20:24:13.791Z,6.10
2023-01-20T20:27:17.356Z,5.40
2023-01-20T20:30:26.871Z,5.73
2023-01-20T20:33:34.532Z,6.00
2023-01-20T20:36:38.887Z,7.90
2023-01-20T20:39:42.261Z,10.10
2023-01-20T20:42:47.254Z,14.30
2023-01-20T20:45:58.241Z,11.90
2023-01-20T20:49:03.358Z,12.53
2023-01-20T20:52:09.118Z,13.70
2023-01-20T20:55:15.112Z,13.40
2023-01-20T20:58:18.197Z,15.50
2023-01-20T21:01:21.714Z,14.70
2023-01-20T21:04:29.195Z,13.60
2023-01-20T21:07:38.856Z,12.90
2023-01-20T21:10:43.560Z,12.93
2023-01-20T21:13:55.369Z,10.57
2023-01-20T21:17:00.324Z,9.70
2023-01-20T21:20:13.986Z,10.27
2023-01-20T21:23:20.433Z,9.93
2023-01-20T21:26:35.578Z,9.20
2023-01-20T21:29:39.286Z,8.73
2023-01-20T21:32:46.278Z,8.97
2023-01-20T21:35:52.793Z,9.23
2023-01-20T21:38:57.136Z,9.00
2023-01-20T21:42:00.207Z,9.30
2023-01-20T21:45:03.661Z,9.20
2023-01-20T21:48:27.495Z,8.90
2023-01-20T21:51:51.128Z,8.20
2023-01-20T21:54:55.050Z,8.73
2023-01-20T21:57:58.212Z,8.60
2023-01-20T22:01:06.691Z,7.83
2023-01-20T22:04:09.778Z,8.20
2023-01-20T22:07:17.654Z,8.73
2023-01-20T22:10:21.012Z,8.90
2023-01-20T22:13:26.198Z,8.60
2023-01-20T22:18:51.318Z,8.17
2023-01-20T22:21:54.411Z,7.80
2023-01-20T22:24:57.552Z,9.00
2023-01-20T22:28:00.607Z,9.03
2023-01-20T22:31:07.167Z,10.33
2023-01-20T22:34:11.812Z,12.77
2023-01-20T22:37:14.825Z,10.37
2023-01-20T22:40:18.404Z,13.00
2023-01-20T22:43:21.754Z,11.10
2023-01-20T22:46:29.157Z,13.10
2023-01-20T22:49:33.651Z,12.53
2023-01-20T22:52:36.635Z,11.77
2023-01-20T22:55:48.987Z,12.40
2023-01-20T22:59:04.659Z,12.17
2023-01-20T23:02:07.682Z,11.90
2023-01-20T23:05:14.500Z,12.33
2023-01-20T23:08:17.555Z,12.47
2023-01-20T23:11:22.618Z,12.60
2023-01-20T23:14:57.815Z,12.47
2023-01-20T23:18:03.385Z,11.80
2023-01-20T23:21:07.921Z,10.87
2023-01-20T23:24:10.980Z,11.30
2023-01-20T23:27:15.265Z,11.90
2023-01-20T23:30:21.222Z,11.93
2023-01-20T23:33:24.230Z,11.57
2023-01-20T23:36:28.640Z,10.90
2023-01-20T23:39:34.172Z,10.97
2023-01-20T23:42:37.179Z,11.13
2023-01-20T23:45:40.200Z,10.60
2023-01-20T23:48:43.338Z,10.33
2023-01-20T23:51:47.697Z,9.10
2023-01-20T23:54:53.688Z,10.37
2023-01-20T23:58:06.237Z,10.23
